Time;durP1;ratioP1;P1;durP2;ratioP2;P2;SDS_P1;SDS_P2;PMS_P1;PMS_P2;Temp;Humidity;BMP_temperature;BMP_pressure;BME280_temperature;BME280_humidity;BME280_pressure;Samples;Min_cycle;Max_cycle;Signal;HPM_P1;HPM_P2
2022/09/01 00:01:25;;;;;;;;;;;16.30;92.10;;;;;;6182266;23;20403;-65
2022/09/01 00:03:53;;;;;;;;;;;16.30;92.10;;;;;;6182363;23;19934;-64
2022/09/01 00:06:23;;;;;;;;;;;16.30;91.90;;;;;;6180713;23;20007;-64
2022/09/01 00:08:53;;;;;;;;;;;16.40;91.80;;;;;;6182791;23;20354;-64
2022/09/01 00:11:20;;;;;;;;;;;16.40;91.40;;;;;;6182638;23;19908;-65
2022/09/01 00:13:46;;;;;;;;;;;16.30;91.30;;;;;;6182893;23;19912;-65
2022/09/01 00:16:14;;;;;;;;;;;16.30;91.20;;;;;;6155917;23;19914;-65
2022/09/01 00:18:41;;;;;;;;;;;16.30;91.10;;;;;;6156383;23;19912;-64
2022/09/01 00:21:08;;;;;;;;;;;16.30;91.20;;;;;;6182863;23;19915;-65
2022/09/01 00:23:34;;;;;;;;;;;16.30;91.20;;;;;;6156562;23;20224;-64
2022/09/01 00:26:01;;;;;;;;;;;16.40;91.40;;;;;;6182467;23;19950;-66
2022/09/01 00:28:28;;;;;;;;;;;16.40;91.20;;;;;;6182483;23;19919;-65
2022/09/01 00:30:54;;;;;;;;;;;16.60;91.10;;;;;;6182781;23;19908;-65
2022/09/01 00:33:21;;;;;;;;;;;16.70;91.20;;;;;;6182843;23;20180;-64
2022/09/01 01:37:12;;;;;;;;;;;17.80;85.20;;;;;;6177600;23;20032;-65
2022/09/01 01:39:41;;;;;;;;;;;17.70;84.60;;;;;;6182144;23;19912;-65
2022/09/01 01:42:08;;;;;;;;;;;17.60;84.80;;;;;;6156189;23;20370;-65
2022/09/01 01:44:36;;;;;;;;;;;17.60;85.20;;;;;;6182279;23;19914;-65
2022/09/01 01:47:07;;;;;;;;;;;17.60;85.60;;;;;;6181383;23;19912;-65
2022/09/01 01:49:33;;;;;;;;;;;17.60;84.70;;;;;;6182587;23;20228;-67
2022/09/01 01:52:00;;;;;;;;;;;17.60;85.10;;;;;;6181895;23;20075;-64
2022/09/01 01:54:31;;;;;;;;;;;17.60;85.00;;;;;;6155641;23;19963;-65
2022/09/01 01:56:58;;;;;;;;;;;17.60;85.40;;;;;;6181721;23;19990;-65
2022/09/01 01:59:25;;;;;;;;;;;17.70;84.40;;;;;;6182169;23;19979;-65
2022/09/01 02:01:52;;;;;;;;;;;17.70;84.90;;;;;;6181886;23;19909;-65
2022/09/01 02:04:19;;;;;;;;;;;17.70;85.50;;;;;;6181977;23;19952;-65
2022/09/01 02:06:46;;;;;;;;;;;17.70;84.40;;;;;;6153360;23;20332;-64
2022/09/01 02:09:13;;;;;;;;;;;17.70;84.40;;;;;;6181902;23;19919;-65
2022/09/01 02:11:40;;;;;;;;;;;17.70;84.90;;;;;;6131260;23;19934;-65
2022/09/01 02:14:07;;;;;;;;;;;17.70;84.80;;;;;;6155838;23;19904;-65
2022/09/01 02:16:34;;;;;;;;;;;17.70;84.20;;;;;;6181737;23;20374;-65
2022/09/01 02:19:00;;;;;;;;;;;17.70;84.90;;;;;;6181727;23;19908;-67
2022/09/01 02:21:27;;;;;;;;;;;17.80;84.60;;;;;;6181310;23;20008;-65
2022/09/01 02:23:59;;;;;;;;;;;17.90;84.00;;;;;;6180934;23;19935;-64
2022/09/01 02:26:30;;;;;;;;;;;18.00;84.80;;;;;;6169610;23;19916;-65
2022/09/01 02:28:57;;;;;;;;;;;18.10;84.30;;;;;;6181880;23;19915;-65
2022/09/01 02:31:24;;;;;;;;;;;18.10;82.90;;;;;;6181818;23;19962;-65
2022/09/01 02:33:53;;;;;;;;;;;18.10;82.90;;;;;;6181933;23;19905;-65
2022/09/01 02:36:19;;;;;;;;;;;18.10;83.20;;;;;;6179632;23;19920;-65
2022/09/01 02:38:47;;;;;;;;;;;18.00;83.50;;;;;;6181447;23;19908;-65
2022/09/01 02:41:14;;;;;;;;;;;18.10;83.10;;;;;;6181483;23;19909;-67
2022/09/01 02:43:45;;;;;;;;;;;18.10;83.20;;;;;;6181383;23;20410;-65
2022/09/01 02:46:11;;;;;;;;;;;18.10;82.00;;;;;;6181649;23;19912;-65
2022/09/01 02:48:39;;;;;;;;;;;18.00;83.10;;;;;;6181322;23;19908;-65
2022/09/01 02:51:09;;;;;;;;;;;18.00;82.70;;;;;;6182416;23;20309;-65
2022/09/01 02:53:38;;;;;;;;;;;18.10;82.40;;;;;;6181889;23;19919;-65
2022/09/01 02:56:08;;;;;;;;;;;18.10;82.80;;;;;;6157745;23;19988;-65
2022/09/01 02:58:39;;;;;;;;;;;18.00;82.90;;;;;;6158491;23;19913;-65
2022/09/01 03:01:07;;;;;;;;;;;18.10;83.50;;;;;;6184190;23;19919;-65
2022/09/01 03:03:34;;;;;;;;;;;17.90;82.30;;;;;;6157087;23;19912;-65
2022/09/01 03:06:01;;;;;;;;;;;17.90;81.90;;;;;;6181165;23;20244;-65
2022/09/01 03:08:30;;;;;;;;;;;17.80;82.30;;;;;;6183260;23;19913;-65
2022/09/01 03:11:00;;;;;;;;;;;17.90;82.70;;;;;;6183906;23;20303;-65
2022/09/01 03:13:27;;;;;;;;;;;17.90;82.70;;;;;;6183337;23;19936;-65
2022/09/01 03:15:54;;;;;;;;;;;18.00;82.80;;;;;;6182924;23;19919;-66
2022/09/01 03:18:21;;;;;;;;;;;18.00;82.60;;;;;;6183467;23;19908;-65
2022/09/01 03:20:49;;;;;;;;;;;18.00;83.20;;;;;;6183514;23;19980;-66
2022/09/01 03:23:17;;;;;;;;;;;18.00;82.20;;;;;;6183198;23;20350;-65
2022/09/01 03:25:44;;;;;;;;;;;18.00;81.50;;;;;;6182970;23;19964;-65
2022/09/01 03:28:11;;;;;;;;;;;18.00;81.30;;;;;;6182898;23;19927;-65
2022/09/01 03:30:39;;;;;;;;;;;17.90;81.50;;;;;;6182830;23;19951;-65
2022/09/01 03:33:06;;;;;;;;;;;18.00;81.00;;;;;;6156831;23;19943;-65
2022/09/01 03:35:32;;;;;;;;;;;18.10;81.20;;;;;;6181495;23;19916;-66
2022/09/01 03:37:59;;;;;;;;;;;18.10;80.90;;;;;;6183291;23;19947;-66
2022/09/01 03:40:28;;;;;;;;;;;18.10;80.60;;;;;;6183376;23;19908;-66
2022/09/01 03:42:55;;;;;;;;;;;18.10;80.30;;;;;;6156492;23;19904;-65
2022/09/01 03:45:24;;;;;;;;;;;18.10;81.40;;;;;;6156553;23;19904;-65
2022/09/01 03:47:51;;;;;;;;;;;18.00;80.70;;;;;;6183239;23;20212;-65
2022/09/01 03:50:21;;;;;;;;;;;18.10;81.00;;;;;;6156334;23;20232;-65
2022/09/01 03:52:57;;;;;;;;;;;18.20;81.20;;;;;;6183370;23;20286;-66
2022/09/01 03:55:26;;;;;;;;;;;18.30;81.10;;;;;;6182283;23;20351;-65
2022/09/01 03:57:53;;;;;;;;;;;18.30;80.50;;;;;;6183612;23;20208;-65
2022/09/01 04:00:21;;;;;;;;;;;18.40;79.80;;;;;;6183467;23;19919;-65
2022/09/01 04:02:55;;;;;;;;;;;18.30;78.80;;;;;;6183064;23;19983;-65
2022/09/01 04:05:28;;;;;;;;;;;18.30;80.20;;;;;;6154717;23;19986;-66
2022/09/01 04:07:56;;;;;;;;;;;18.20;79.30;;;;;;6175594;23;20320;-66
2022/09/01 04:10:22;;;;;;;;;;;18.20;80.00;;;;;;6156185;23;20019;-66
2022/09/01 04:12:49;;;;;;;;;;;18.20;80.70;;;;;;6182243;23;19919;-66
2022/09/01 04:15:16;;;;;;;;;;;18.20;80.60;;;;;;6182412;23;19919;-66
2022/09/01 04:20:55;;;;;;;;;;;18.20;81.10;;;;;;6062735;23;19913;-65
2022/09/01 04:23:25;;;;;;;;;;;18.20;80.90;;;;;;6062027;23;19980;-65
2022/09/01 04:26:13;;;;;;;;;;;18.10;80.60;;;;;;6125575;23;19935;-66
2022/09/01 04:28:41;;;;;;;;;;;18.20;80.70;;;;;;6183138;23;19936;-66
2022/09/01 04:31:13;;;;;;;;;;;18.10;80.80;;;;;;6156496;23;19909;-66
2022/09/01 04:33:40;;;;;;;;;;;18.10;80.80;;;;;;6182805;23;19908;-66
2022/09/01 04:36:18;;;;;;;;;;;18.20;80.50;;;;;;6180627;23;19912;-66
2022/09/01 04:38:45;;;;;;;;;;;18.20;80.30;;;;;;6182841;23;19999;-65
2022/09/01 04:41:16;;;;;;;;;;;18.20;80.30;;;;;;6182484;23;19954;-66
2022/09/01 04:43:46;;;;;;;;;;;18.30;79.60;;;;;;6182753;23;20331;-66
2022/09/01 04:46:13;;;;;;;;;;;18.30;80.00;;;;;;6181991;23;19905;-66
2022/09/01 04:48:44;;;;;;;;;;;18.20;79.50;;;;;;6181993;23;19916;-66
2022/09/01 04:51:11;;;;;;;;;;;18.20;79.70;;;;;;6182121;23;20359;-66
2022/09/01 04:53:38;;;;;;;;;;;18.30;79.80;;;;;;6182784;23;19912;-66
2022/09/01 04:56:05;;;;;;;;;;;18.30;79.60;;;;;;6182113;23;19908;-66
2022/09/01 04:58:32;;;;;;;;;;;18.20;80.00;;;;;;6182118;23;19955;-66
2022/09/01 05:01:02;;;;;;;;;;;18.20;80.10;;;;;;6182411;23;19904;-66
2022/09/01 05:03:30;;;;;;;;;;;18.20;80.00;;;;;;6182461;23;19912;-66
2022/09/01 05:08:30;;;;;;;;;;;18.30;79.70;;;;;;6182128;23;19931;-66
2022/09/01 05:10:57;;;;;;;;;;;18.30;79.90;;;;;;6182561;23;20358;-66
2022/09/01 05:13:26;;;;;;;;;;;18.30;79.20;;;;;;6182333;23;19908;-66
2022/09/01 05:16:02;;;;;;;;;;;18.30;79.50;;;;;;6181484;23;19908;-66
2022/09/01 05:18:29;;;;;;;;;;;18.30;79.40;;;;;;6181932;23;19967;-66
2022/09/01 05:20:56;;;;;;;;;;;18.30;79.70;;;;;;6182567;23;19979;-66
2022/09/01 05:23:24;;;;;;;;;;;18.30;79.40;;;;;;6182523;23;19915;-66
2022/09/01 05:25:53;;;;;;;;;;;18.20;79.40;;;;;;6181874;23;19908;-66
2022/09/01 05:28:23;;;;;;;;;;;18.20;79.80;;;;;;6182324;23;19947;-66
2022/09/01 05:30:52;;;;;;;;;;;18.20;79.40;;;;;;6181737;23;19908;-66
2022/09/01 05:33:20;;;;;;;;;;;18.20;79.60;;;;;;6182094;23;20350;-66
2022/09/01 05:35:54;;;;;;;;;;;18.20;79.30;;;;;;6182101;23;19908;-66
2022/09/01 05:38:21;;;;;;;;;;;18.10;79.50;;;;;;6157072;23;20240;-67
2022/09/01 05:40:57;;;;;;;;;;;18.10;79.30;;;;;;6157462;23;19908;-67
2022/09/01 05:43:26;;;;;;;;;;;18.10;78.00;;;;;;6183618;23;20343;-67
2022/09/01 05:45:53;;;;;;;;;;;18.10;78.10;;;;;;6183890;23;19905;-67
2022/09/01 05:48:20;;;;;;;;;;;18.20;78.30;;;;;;6184085;23;19998;-67
2022/09/01 05:50:48;;;;;;;;;;;18.20;77.60;;;;;;6157960;23;20355;-67
2022/09/01 05:53:16;;;;;;;;;;;18.20;77.40;;;;;;6157819;23;20316;-67
2022/09/01 05:55:43;;;;;;;;;;;18.20;77.50;;;;;;6183028;23;19936;-67
2022/09/01 05:58:12;;;;;;;;;;;18.20;77.70;;;;;;6184166;23;19927;-67
2022/09/01 06:00:41;;;;;;;;;;;18.20;77.70;;;;;;6157330;23;19912;-67
2022/09/01 06:03:09;;;;;;;;;;;18.30;77.20;;;;;;6183178;23;19935;-66
2022/09/01 06:05:36;;;;;;;;;;;18.30;77.90;;;;;;6182926;23;19920;-66
2022/09/01 07:09:34;;;;;;;;;;;17.80;80.70;;;;;;6150561;23;20345;-66
2022/09/01 07:12:02;;;;;;;;;;;17.80;81.30;;;;;;6124273;23;19916;-66
2022/09/01 07:14:29;;;;;;;;;;;17.80;81.80;;;;;;6124665;23;19912;-66
2022/09/01 07:16:57;;;;;;;;;;;17.70;82.00;;;;;;6149532;23;20263;-66
2022/09/01 07:19:24;;;;;;;;;;;17.70;82.10;;;;;;6138217;23;20401;-66
2022/09/01 07:21:51;;;;;;;;;;;17.70;82.40;;;;;;6124705;23;20277;-67
2022/09/01 07:24:19;;;;;;;;;;;17.70;82.40;;;;;;6150143;23;20197;-67
2022/09/01 07:26:52;;;;;;;;;;;17.70;82.30;;;;;;6150383;23;19919;-66
2022/09/01 07:29:21;;;;;;;;;;;17.70;82.40;;;;;;6147972;23;19909;-65
2022/09/01 07:31:48;;;;;;;;;;;17.60;82.60;;;;;;6150464;23;20363;-66
2022/09/01 07:34:20;;;;;;;;;;;17.60;82.80;;;;;;6148837;23;20447;-65
2022/09/01 07:36:46;;;;;;;;;;;17.60;83.00;;;;;;6147753;23;19971;-67
2022/09/01 07:39:13;;;;;;;;;;;17.50;83.20;;;;;;6150824;23;19932;-65
2022/09/01 07:41:40;;;;;;;;;;;17.50;83.30;;;;;;6149853;23;19909;-65
2022/09/01 07:44:11;;;;;;;;;;;17.50;83.50;;;;;;6149811;23;19912;-65
2022/09/01 07:46:38;;;;;;;;;;;17.50;83.60;;;;;;6149825;23;19922;-64
2022/09/01 07:49:04;;;;;;;;;;;17.50;83.60;;;;;;6150655;23;19970;-64
2022/09/01 07:51:33;;;;;;;;;;;17.40;83.60;;;;;;6150293;23;20005;-64
2022/09/01 07:54:01;;;;;;;;;;;17.40;83.70;;;;;;6149739;23;20359;-65
2022/09/01 07:56:29;;;;;;;;;;;17.40;83.80;;;;;;6149923;23;19909;-64
2022/09/01 07:58:56;;;;;;;;;;;17.40;83.90;;;;;;6121318;23;20248;-64
2022/09/01 08:01:23;;;;;;;;;;;17.40;84.10;;;;;;6150587;23;19908;-65
2022/09/01 08:03:51;;;;;;;;;;;17.30;84.20;;;;;;6150549;23;19924;-64
2022/09/01 08:06:19;;;;;;;;;;;17.40;84.30;;;;;;6149500;23;19999;-64
2022/09/01 08:08:49;;;;;;;;;;;17.30;84.30;;;;;;6142544;23;19924;-67
2022/09/01 08:11:21;;;;;;;;;;;17.40;84.40;;;;;;6153918;23;20354;-67
2022/09/01 08:13:48;;;;;;;;;;;17.30;84.50;;;;;;6179611;23;19908;-66
2022/09/01 08:16:14;;;;;;;;;;;17.30;84.60;;;;;;6179913;23;19911;-65
2022/09/01 08:18:42;;;;;;;;;;;17.30;84.60;;;;;;6177862;23;19910;-64
2022/09/01 08:21:09;;;;;;;;;;;17.30;84.60;;;;;;6153247;23;20323;-64
2022/09/01 08:23:36;;;;;;;;;;;17.30;84.70;;;;;;6178859;23;19924;-65
2022/09/01 08:26:07;;;;;;;;;;;17.20;84.60;;;;;;6178245;23;19928;-65
2022/09/01 08:28:33;;;;;;;;;;;17.30;84.70;;;;;;6179754;23;19913;-65
2022/09/01 08:31:00;;;;;;;;;;;17.30;84.60;;;;;;6178994;23;19904;-65
2022/09/01 08:33:26;;;;;;;;;;;17.20;84.40;;;;;;6179326;23;20336;-65
2022/09/01 08:35:54;;;;;;;;;;;17.30;84.40;;;;;;6179183;23;19908;-64
2022/09/01 08:38:20;;;;;;;;;;;17.20;84.40;;;;;;6177748;23;19911;-65
2022/09/01 08:40:54;;;;;;;;;;;17.20;84.30;;;;;;6152739;23;20344;-65
2022/09/01 08:43:30;;;;;;;;;;;17.20;84.50;;;;;;6179494;23;19979;-64
2022/09/01 08:45:56;;;;;;;;;;;17.20;84.40;;;;;;6179664;23;19912;-67
2022/09/01 08:48:29;;;;;;;;;;;17.20;84.50;;;;;;6153296;23;19916;-67
2022/09/01 08:50:58;;;;;;;;;;;17.20;84.50;;;;;;6153599;23;19908;-65
2022/09/01 08:53:29;;;;;;;;;;;17.20;84.60;;;;;;6179484;23;19995;-63
2022/09/01 08:55:56;;;;;;;;;;;17.20;84.50;;;;;;6178790;23;19912;-64
2022/09/01 08:58:23;;;;;;;;;;;17.20;84.70;;;;;;6152870;23;20209;-64
2022/09/01 09:00:56;;;;;;;;;;;17.20;84.60;;;;;;6150614;23;19908;-65
2022/09/01 09:03:23;;;;;;;;;;;17.20;84.50;;;;;;6153004;23;19910;-64
2022/09/01 09:05:56;;;;;;;;;;;17.20;84.30;;;;;;6179668;23;19914;-66
2022/09/01 09:08:34;;;;;;;;;;;17.20;84.30;;;;;;6176822;23;19940;-66
2022/09/01 09:11:04;;;;;;;;;;;17.20;84.40;;;;;;6176408;23;19912;-64
2022/09/01 09:13:35;;;;;;;;;;;17.20;84.50;;;;;;6178986;23;20013;-64
2022/09/01 09:16:05;;;;;;;;;;;17.20;84.60;;;;;;6126972;23;19947;-67
2022/09/01 09:18:38;;;;;;;;;;;17.20;84.90;;;;;;6177990;23;19909;-67
2022/09/01 09:21:24;;;;;;;;;;;17.20;84.80;;;;;;6178122;23;19912;-66
2022/09/01 09:23:54;;;;;;;;;;;17.20;84.70;;;;;;6152340;23;19904;-66
2022/09/01 09:26:21;;;;;;;;;;;17.10;84.90;;;;;;6152112;23;19913;-67
2022/09/01 09:28:48;;;;;;;;;;;17.10;84.90;;;;;;6178295;23;19916;-66
2022/09/01 09:31:36;;;;;;;;;;;17.10;84.90;;;;;;6177917;23;19922;-66
2022/09/01 09:34:02;;;;;;;;;;;17.10;84.80;;;;;;6152705;23;19920;-66
2022/09/01 09:36:30;;;;;;;;;;;17.20;84.70;;;;;;6178437;23;19939;-66
2022/09/01 10:07:33;;;;;;;;;;;17.10;85.10;;;;;;6119880;23;19924;-70
2022/09/01 10:10:01;;;;;;;;;;;17.10;85.30;;;;;;6091777;23;19931;-71
2022/09/01 10:12:28;;;;;;;;;;;17.10;85.10;;;;;;6094474;23;19905;-71
2022/09/01 10:15:05;;;;;;;;;;;17.10;85.10;;;;;;6094591;23;19909;-71
2022/09/01 10:17:37;;;;;;;;;;;17.10;85.20;;;;;;6093467;23;19912;-71
2022/09/01 10:20:06;;;;;;;;;;;17.10;85.20;;;;;;6093931;23;19909;-71
2022/09/01 10:22:33;;;;;;;;;;;17.10;85.30;;;;;;6094714;23;20487;-69
2022/09/01 10:25:00;;;;;;;;;;;17.10;85.30;;;;;;6120453;23;19909;-69
2022/09/01 10:27:29;;;;;;;;;;;17.10;85.40;;;;;;6095000;23;19917;-69
2022/09/01 10:30:07;;;;;;;;;;;17.00;85.50;;;;;;6094405;23;19909;-68
2022/09/01 10:32:44;;;;;;;;;;;17.00;85.60;;;;;;6119434;23;19909;-71
2022/09/01 10:35:15;;;;;;;;;;;17.00;85.70;;;;;;6121298;23;19972;-71
2022/09/01 10:37:42;;;;;;;;;;;17.00;85.70;;;;;;6090692;23;19912;-71
2022/09/01 10:40:17;;;;;;;;;;;17.00;85.80;;;;;;6116911;23;20247;-68
2022/09/01 10:42:45;;;;;;;;;;;17.00;85.90;;;;;;6119405;23;19909;-67
2022/09/01 10:45:22;;;;;;;;;;;17.00;86.00;;;;;;6090712;23;20324;-67
2022/09/01 10:47:49;;;;;;;;;;;17.00;86.10;;;;;;6118507;23;19917;-67
2022/09/01 10:50:23;;;;;;;;;;;17.00;86.20;;;;;;6093087;23;19936;-68
2022/09/01 10:52:49;;;;;;;;;;;17.00;86.30;;;;;;6119065;23;19905;-67
2022/09/01 10:55:17;;;;;;;;;;;17.00;86.50;;;;;;6118947;23;19909;-67
2022/09/01 10:58:02;;;;;;;;;;;17.00;86.50;;;;;;6118152;23;19908;-68
2022/09/01 11:00:28;;;;;;;;;;;17.00;86.50;;;;;;6116271;23;19920;-67
2022/09/01 11:03:14;;;;;;;;;;;16.90;86.80;;;;;;6119954;23;19962;-67
2022/09/01 11:06:06;;;;;;;;;;;16.90;86.90;;;;;;6117933;23;19965;-68
2022/09/01 11:08:33;;;;;;;;;;;16.90;86.90;;;;;;6115178;23;20016;-67
2022/09/01 11:11:02;;;;;;;;;;;16.90;87.00;;;;;;6117756;23;19956;-68
2022/09/01 11:13:32;;;;;;;;;;;16.90;87.00;;;;;;6119983;23;20661;-67
2022/09/01 11:16:17;;;;;;;;;;;16.90;87.10;;;;;;6118663;23;19909;-68
2022/09/01 11:18:43;;;;;;;;;;;16.90;87.10;;;;;;6120390;23;19948;-67
2022/09/01 11:21:14;;;;;;;;;;;16.90;87.20;;;;;;6121087;23;19913;-68
2022/09/01 11:23:40;;;;;;;;;;;16.90;87.40;;;;;;6122305;23;19951;-68
2022/09/01 11:26:25;;;;;;;;;;;16.90;87.40;;;;;;6118515;23;19957;-69
2022/09/01 11:28:52;;;;;;;;;;;16.90;87.40;;;;;;6119888;23;19917;-69
2022/09/01 11:31:53;;;;;;;;;;;16.90;87.50;;;;;;6120664;23;20351;-68
2022/09/01 11:34:22;;;;;;;;;;;16.90;87.60;;;;;;6030450;23;19914;-67
2022/09/01 11:36:53;;;;;;;;;;;16.90;87.50;;;;;;6103756;23;19917;-67
2022/09/01 11:39:25;;;;;;;;;;;16.90;87.50;;;;;;6095816;23;19913;-69
2022/09/01 11:41:56;;;;;;;;;;;16.90;87.50;;;;;;6117197;23;19909;-67
2022/09/01 11:44:24;;;;;;;;;;;16.80;87.70;;;;;;6094515;23;19909;-69
2022/09/01 11:46:51;;;;;;;;;;;16.90;87.60;;;;;;6090501;23;20252;-67
2022/09/01 11:49:25;;;;;;;;;;;16.80;87.50;;;;;;6118292;23;19971;-67
2022/09/01 11:51:51;;;;;;;;;;;16.90;87.50;;;;;;6095140;23;20322;-68
2022/09/01 11:54:18;;;;;;;;;;;16.90;87.50;;;;;;6122133;23;19908;-67
2022/09/01 11:56:44;;;;;;;;;;;16.90;87.50;;;;;;6122070;23;19912;-67
2022/09/01 11:59:11;;;;;;;;;;;16.90;87.40;;;;;;6095262;23;19929;-69
2022/09/01 12:01:38;;;;;;;;;;;16.80;87.20;;;;;;6121389;23;19905;-68
2022/09/01 12:04:26;;;;;;;;;;;16.80;87.10;;;;;;6122188;23;19919;-68
2022/09/01 12:06:57;;;;;;;;;;;16.80;86.90;;;;;;6120331;23;19939;-68
2022/09/01 12:09:33;;;;;;;;;;;16.80;86.90;;;;;;6094533;23;19913;-68
2022/09/01 12:12:00;;;;;;;;;;;16.80;86.60;;;;;;6120509;23;19933;-67
2022/09/01 12:14:27;;;;;;;;;;;16.80;86.60;;;;;;6122668;23;19905;-67
2022/09/01 12:17:01;;;;;;;;;;;16.70;86.70;;;;;;6122970;23;19917;-67
2022/09/01 12:19:31;;;;;;;;;;;16.70;86.60;;;;;;6096282;23;20554;-67
2022/09/01 12:22:13;;;;;;;;;;;16.70;86.60;;;;;;6096611;23;19912;-67
2022/09/01 12:24:43;;;;;;;;;;;16.70;86.80;;;;;;6097312;23;20048;-67
2022/09/01 12:27:10;;;;;;;;;;;16.70;86.90;;;;;;6122824;23;20206;-67
2022/09/01 12:29:36;;;;;;;;;;;16.70;86.80;;;;;;6122947;23;19976;-69
2022/09/01 12:32:03;;;;;;;;;;;16.60;86.70;;;;;;6121625;23;19932;-69
2022/09/01 12:34:33;;;;;;;;;;;16.60;86.60;;;;;;6124014;23;19946;-69
2022/09/01 12:37:23;;;;;;;;;;;16.60;86.60;;;;;;6123007;23;19952;-69
2022/09/01 12:39:50;;;;;;;;;;;16.60;86.50;;;;;;6086623;23;19905;-69
2022/09/01 12:42:17;;;;;;;;;;;16.60;86.50;;;;;;6074251;23;19977;-69
2022/09/01 12:44:49;;;;;;;;;;;16.50;86.60;;;;;;6125699;23;20244;-69
2022/09/01 12:47:46;;;;;;;;;;;16.50;86.70;;;;;;6099852;23;19923;-69
2022/09/01 12:50:13;;;;;;;;;;;16.50;86.80;;;;;;6098578;23;19940;-70
2022/09/01 12:52:45;;;;;;;;;;;16.50;86.90;;;;;;6125058;23;20269;-69
2022/09/01 12:55:16;;;;;;;;;;;16.50;86.90;;;;;;6098792;23;19909;-69
2022/09/01 12:57:50;;;;;;;;;;;16.50;86.90;;;;;;6124333;23;19992;-70
2022/09/01 13:00:21;;;;;;;;;;;16.40;87.10;;;;;;6099041;23;19901;-69
2022/09/01 13:03:07;;;;;;;;;;;16.40;87.10;;;;;;6099530;23;20297;-70
2022/09/01 13:05:34;;;;;;;;;;;16.40;87.10;;;;;;6109396;23;19905;-69
2022/09/01 13:08:01;;;;;;;;;;;16.40;87.20;;;;;;6124135;23;19943;-69
2022/09/01 13:10:30;;;;;;;;;;;16.40;87.20;;;;;;6123427;23;19905;-69
2022/09/01 13:12:57;;;;;;;;;;;16.30;87.20;;;;;;6124348;23;19969;-69
2022/09/01 13:15:24;;;;;;;;;;;16.30;87.30;;;;;;6115638;23;19916;-69
2022/09/01 13:17:51;;;;;;;;;;;16.30;87.50;;;;;;6118888;23;19912;-68
2022/09/01 13:20:18;;;;;;;;;;;16.20;87.60;;;;;;6120808;23;19905;-68
2022/09/01 13:22:45;;;;;;;;;;;16.30;87.70;;;;;;6117608;23;19905;-67
2022/09/01 13:25:13;;;;;;;;;;;16.30;87.80;;;;;;6121619;23;19908;-68
2022/09/01 13:27:46;;;;;;;;;;;16.20;87.60;;;;;;6120785;23;19913;-67
2022/09/01 13:30:17;;;;;;;;;;;16.20;87.90;;;;;;6121705;23;19913;-68
2022/09/01 13:32:44;;;;;;;;;;;16.20;88.00;;;;;;6120955;23;19909;-68
2022/09/01 13:35:11;;;;;;;;;;;16.20;88.00;;;;;;6120984;23;19905;-68
2022/09/01 13:37:37;;;;;;;;;;;16.10;88.10;;;;;;6122296;23;19905;-67
2022/09/01 13:40:06;;;;;;;;;;;16.20;88.10;;;;;;6122810;23;19981;-67
2022/09/01 13:42:33;;;;;;;;;;;16.10;88.10;;;;;;6123868;23;20113;-67
2022/09/01 13:45:00;;;;;;;;;;;16.10;88.00;;;;;;6098243;23;20329;-68
2022/09/01 13:47:26;;;;;;;;;;;16.10;88.10;;;;;;6124236;23;19917;-67
2022/09/01 13:49:53;;;;;;;;;;;16.10;88.10;;;;;;6123836;23;19912;-67
2022/09/01 13:52:20;;;;;;;;;;;16.00;88.20;;;;;;6123198;23;19945;-68
2022/09/01 13:54:47;;;;;;;;;;;16.00;88.20;;;;;;6123773;23;19909;-68
2022/09/01 13:57:15;;;;;;;;;;;16.00;88.20;;;;;;6123838;23;19971;-69
2022/09/01 13:59:41;;;;;;;;;;;16.00;88.30;;;;;;6122941;23;20362;-68
2022/09/01 15:05:50;;;;;;;;;;;15.60;88.80;;;;;;6125890;23;20308;-68
2022/09/01 15:08:16;;;;;;;;;;;15.60;89.10;;;;;;6126384;23;20001;-68
2022/09/01 15:10:43;;;;;;;;;;;15.50;89.10;;;;;;6125376;23;19913;-68
2022/09/01 15:13:10;;;;;;;;;;;15.50;89.30;;;;;;6126017;23;19905;-69
2022/09/01 15:15:37;;;;;;;;;;;15.50;89.40;;;;;;6126412;23;19905;-68
2022/09/01 15:18:03;;;;;;;;;;;15.40;89.40;;;;;;6126289;23;20236;-68
2022/09/01 15:20:45;;;;;;;;;;;15.50;89.50;;;;;;6126161;23;19905;-69
2022/09/01 15:23:16;;;;;;;;;;;15.50;89.60;;;;;;6125490;23;19912;-68
2022/09/01 15:25:42;;;;;;;;;;;15.50;89.70;;;;;;6126058;23;19905;-68
2022/09/01 15:28:09;;;;;;;;;;;15.50;89.50;;;;;;6125322;23;19916;-68
2022/09/01 15:30:36;;;;;;;;;;;15.40;89.40;;;;;;6123923;23;19912;-68
2022/09/01 15:33:03;;;;;;;;;;;15.40;89.50;;;;;;6125617;23;19905;-68
2022/09/01 15:35:29;;;;;;;;;;;15.40;89.50;;;;;;6100313;23;19951;-69
2022/09/01 15:37:56;;;;;;;;;;;15.50;89.50;;;;;;6126078;23;19905;-68
2022/09/01 15:40:23;;;;;;;;;;;15.40;89.50;;;;;;6125856;23;19909;-68
2022/09/01 15:42:50;;;;;;;;;;;15.40;89.50;;;;;;6124921;23;19905;-69
2022/09/01 15:45:18;;;;;;;;;;;15.40;89.50;;;;;;6125036;23;20222;-68
2022/09/01 15:47:47;;;;;;;;;;;15.30;89.50;;;;;;6098720;23;19920;-68
2022/09/01 15:50:14;;;;;;;;;;;15.30;89.60;;;;;;6125401;23;19905;-68
2022/09/01 15:52:48;;;;;;;;;;;15.40;89.70;;;;;;6099003;23;19905;-68
2022/09/01 15:55:16;;;;;;;;;;;15.30;89.70;;;;;;6099211;23;19999;-69
2022/09/01 15:57:42;;;;;;;;;;;15.30;89.70;;;;;;6125645;23;19935;-68
2022/09/01 16:00:10;;;;;;;;;;;15.30;89.80;;;;;;6099624;23;20380;-68
2022/09/01 16:02:37;;;;;;;;;;;15.30;89.80;;;;;;6124832;23;19936;-68
2022/09/01 16:05:04;;;;;;;;;;;15.30;89.70;;;;;;6125236;23;19916;-69
2022/09/01 16:07:31;;;;;;;;;;;15.30;89.80;;;;;;6125309;23;20256;-68
2022/09/01 16:09:57;;;;;;;;;;;15.30;89.80;;;;;;6099223;23;19905;-68
2022/09/01 16:12:25;;;;;;;;;;;15.30;89.70;;;;;;6125089;23;19909;-69
2022/09/01 16:14:54;;;;;;;;;;;15.30;89.70;;;;;;6124850;23;19905;-69
2022/09/01 16:17:36;;;;;;;;;;;15.30;89.80;;;;;;6125102;23;19908;-69
2022/09/01 16:20:08;;;;;;;;;;;15.30;89.70;;;;;;6125448;23;19913;-69
2022/09/01 16:22:35;;;;;;;;;;;15.20;89.80;;;;;;6125439;23;19905;-69
2022/09/01 16:25:12;;;;;;;;;;;15.30;89.80;;;;;;6125423;23;19984;-69
2022/09/01 16:27:40;;;;;;;;;;;15.20;89.80;;;;;;6124115;23;19921;-69
2022/09/01 16:30:07;;;;;;;;;;;15.20;89.80;;;;;;6125819;23;20285;-70
2022/09/01 16:32:34;;;;;;;;;;;15.20;89.80;;;;;;6124840;23;19905;-69
2022/09/01 16:35:02;;;;;;;;;;;15.20;89.80;;;;;;6125118;23;19936;-69
2022/09/01 16:37:47;;;;;;;;;;;15.20;89.80;;;;;;6125688;23;19905;-69
2022/09/01 16:40:32;;;;;;;;;;;15.20;90.00;;;;;;6123757;23;19947;-69
2022/09/01 16:43:03;;;;;;;;;;;15.20;89.90;;;;;;6124203;23;19905;-69
2022/09/01 16:45:30;;;;;;;;;;;15.10;89.90;;;;;;6123907;23;19928;-70
2022/09/01 16:47:57;;;;;;;;;;;15.10;89.90;;;;;;6124108;23;19917;-69
2022/09/01 16:50:34;;;;;;;;;;;15.00;90.00;;;;;;6124310;23;19909;-68
2022/09/01 16:53:07;;;;;;;;;;;15.10;90.00;;;;;;6099358;23;19920;-69
2022/09/01 16:55:43;;;;;;;;;;;15.00;90.10;;;;;;6124688;23;19909;-69
2022/09/01 16:58:27;;;;;;;;;;;15.00;90.10;;;;;;6099975;23;19964;-69
2022/09/01 17:00:54;;;;;;;;;;;15.00;90.10;;;;;;6124882;23;20273;-69
2022/09/01 17:03:30;;;;;;;;;;;15.00;90.10;;;;;;6124817;23;19905;-69
2022/09/01 17:06:01;;;;;;;;;;;15.00;90.00;;;;;;6123646;23;19980;-69
2022/09/01 17:08:33;;;;;;;;;;;15.00;90.20;;;;;;6098896;23;19917;-69
2022/09/01 17:10:59;;;;;;;;;;;14.90;90.10;;;;;;6098706;23;19912;-69
2022/09/01 17:13:37;;;;;;;;;;;14.90;90.20;;;;;;6123615;23;20236;-69
2022/09/01 17:16:10;;;;;;;;;;;15.00;90.40;;;;;;6125336;23;20316;-70
2022/09/01 17:18:43;;;;;;;;;;;15.00;90.40;;;;;;6125728;23;20209;-70
2022/09/01 17:21:30;;;;;;;;;;;15.00;90.40;;;;;;6099422;23;19991;-69
2022/09/01 17:23:58;;;;;;;;;;;15.00;90.30;;;;;;6124712;23;20372;-69
2022/09/01 17:26:26;;;;;;;;;;;15.00;90.50;;;;;;6098217;23;19936;-70
2022/09/01 17:28:58;;;;;;;;;;;15.00;90.50;;;;;;6125270;23;19991;-69
2022/09/01 17:40:27;;;;;;;;;;;14.90;90.60;;;;;;6121510;23;20355;-69
2022/09/01 17:42:54;;;;;;;;;;;14.80;90.70;;;;;;6098848;23;19916;-69
2022/09/01 17:45:27;;;;;;;;;;;14.80;90.70;;;;;;6123972;23;19905;-70
2022/09/01 17:47:55;;;;;;;;;;;14.80;90.80;;;;;;6124756;23;19913;-69
2022/09/01 17:50:22;;;;;;;;;;;14.80;90.80;;;;;;6123414;23;19991;-69
2022/09/01 17:52:51;;;;;;;;;;;14.80;90.80;;;;;;6124638;23;19943;-67
2022/09/01 17:55:23;;;;;;;;;;;14.80;90.90;;;;;;6124777;23;19905;-67
2022/09/01 17:57:57;;;;;;;;;;;14.80;91.00;;;;;;6098638;23;19912;-68
2022/09/01 18:00:25;;;;;;;;;;;14.80;90.90;;;;;;6099062;23;19912;-69
2022/09/01 18:03:01;;;;;;;;;;;14.80;90.90;;;;;;6124121;23;19905;-69
2022/09/01 18:05:27;;;;;;;;;;;14.80;90.90;;;;;;6124561;23;20365;-70
2022/09/01 18:07:57;;;;;;;;;;;14.70;90.90;;;;;;6097865;23;19988;-69
2022/09/01 18:10:26;;;;;;;;;;;14.80;90.90;;;;;;6124167;23;19905;-69
2022/09/01 18:12:55;;;;;;;;;;;14.80;90.90;;;;;;6124737;23;19916;-69
2022/09/01 18:15:22;;;;;;;;;;;14.70;90.90;;;;;;6124231;23;19909;-69
2022/09/01 18:17:54;;;;;;;;;;;14.80;91.00;;;;;;6098824;23;19909;-70
2022/09/01 18:20:26;;;;;;;;;;;14.70;91.00;;;;;;6124091;23;19905;-69